sensor_id;sensor_type;location;lat;lon;timestamp;temperature;humidity
1021;DHT22;499;42.648;23.270;2022-07-09T00:01:24;17.00;99.90
1021;DHT22;499;42.648;23.270;2022-07-09T00:03:51;17.10;99.90
1021;DHT22;499;42.648;23.270;2022-07-09T00:06:18;17.00;99.90
1021;DHT22;499;42.648;23.270;2022-07-09T00:08:46;17.00;99.90
1021;DHT22;499;42.648;23.270;2022-07-09T00:11:13;17.10;99.90
1021;DHT22;499;42.648;23.270;2022-07-09T00:13:41;17.00;99.90
1021;DHT22;499;42.648;23.270;2022-07-09T00:16:08;17.00;99.90
1021;DHT22;499;42.648;23.270;2022-07-09T00:18:35;17.10;99.90
1021;DHT22;499;42.648;23.270;2022-07-09T00:21:02;17.20;99.90
1021;DHT22;499;42.648;23.270;2022-07-09T00:23:30;17.30;99.90
1021;DHT22;499;42.648;23.270;2022-07-09T00:25:57;17.30;99.90
1021;DHT22;499;42.648;23.270;2022-07-09T00:28:24;17.10;99.90
1021;DHT22;499;42.648;23.270;2022-07-09T00:30:53;17.00;99.90
1021;DHT22;499;42.648;23.270;2022-07-09T00:33:20;16.80;99.90
1021;DHT22;499;42.648;23.270;2022-07-09T00:35:47;16.60;99.90
1021;DHT22;499;42.648;23.270;2022-07-09T00:38:14;16.60;99.90
1021;DHT22;499;42.648;23.270;2022-07-09T00:40:41;16.60;99.90
1021;DHT22;499;42.648;23.270;2022-07-09T00:43:18;16.40;99.90
1021;DHT22;499;42.648;23.270;2022-07-09T00:45:46;16.40;99.90
1021;DHT22;499;42.648;23.270;2022-07-09T00:48:15;16.40;99.90
1021;DHT22;499;42.648;23.270;2022-07-09T00:50:43;16.40;99.90
1021;DHT22;499;42.648;23.270;2022-07-09T00:53:12;16.40;99.90
1021;DHT22;499;42.648;23.270;2022-07-09T00:55:41;16.40;99.90
1021;DHT22;499;42.648;23.270;2022-07-09T00:58:11;16.40;99.90
1021;DHT22;499;42.648;23.270;2022-07-09T01:00:39;16.40;99.90
1021;DHT22;499;42.648;23.270;2022-07-09T01:03:07;16.40;99.90
1021;DHT22;499;42.648;23.270;2022-07-09T01:05:36;16.40;99.90
1021;DHT22;499;42.648;23.270;2022-07-09T01:08:04;16.30;99.90
1021;DHT22;499;42.648;23.270;2022-07-09T01:10:32;16.40;99.90
1021;DHT22;499;42.648;23.270;2022-07-09T01:13:00;16.50;99.90
1021;DHT22;499;42.648;23.270;2022-07-09T01:15:28;16.50;99.90
1021;DHT22;499;42.648;23.270;2022-07-09T01:17:55;16.40;99.90
1021;DHT22;499;42.648;23.270;2022-07-09T01:20:26;16.30;99.90
1021;DHT22;499;42.648;23.270;2022-07-09T01:22:54;16.30;99.90
1021;DHT22;499;42.648;23.270;2022-07-09T01:25:30;16.40;99.90
1021;DHT22;499;42.648;23.270;2022-07-09T01:27:58;16.50;99.90
1021;DHT22;499;42.648;23.270;2022-07-09T01:30:26;16.40;99.90
1021;DHT22;499;42.648;23.270;2022-07-09T01:32:54;16.40;99.90
1021;DHT22;499;42.648;23.270;2022-07-09T01:35:21;16.40;99.90
1021;DHT22;499;42.648;23.270;2022-07-09T01:37:49;16.40;99.90
1021;DHT22;499;42.648;23.270;2022-07-09T01:40:17;16.40;99.90
1021;DHT22;499;42.648;23.270;2022-07-09T01:42:44;16.50;99.90
1021;DHT22;499;42.648;23.270;2022-07-09T01:45:11;16.40;99.90
1021;DHT22;499;42.648;23.270;2022-07-09T01:47:38;16.30;99.90
1021;DHT22;499;42.648;23.270;2022-07-09T01:50:06;16.20;99.90
1021;DHT22;499;42.648;23.270;2022-07-09T01:52:34;16.10;99.90
1021;DHT22;499;42.648;23.270;2022-07-09T01:55:03;16.10;99.90
1021;DHT22;499;42.648;23.270;2022-07-09T01:57:30;16.10;99.90
1021;DHT22;499;42.648;23.270;2022-07-09T01:59:57;16.10;99.90
1021;DHT22;499;42.648;23.270;2022-07-09T02:02:24;16.20;99.90
1021;DHT22;499;42.648;23.270;2022-07-09T02:04:52;16.20;99.90
1021;DHT22;499;42.648;23.270;2022-07-09T02:07:19;16.20;99.90
1021;DHT22;499;42.648;23.270;2022-07-09T02:09:46;16.30;99.90
1021;DHT22;499;42.648;23.270;2022-07-09T02:12:16;16.40;99.90
1021;DHT22;499;42.648;23.270;2022-07-09T02:14:43;16.40;99.90
1021;DHT22;499;42.648;23.270;2022-07-09T02:17:10;16.50;99.90
1021;DHT22;499;42.648;23.270;2022-07-09T02:19:37;16.60;99.90
1021;DHT22;499;42.648;23.270;2022-07-09T02:22:05;16.50;99.90
1021;DHT22;499;42.648;23.270;2022-07-09T02:24:32;16.40;99.90
1021;DHT22;499;42.648;23.270;2022-07-09T02:26:59;16.40;99.90
1021;DHT22;499;42.648;23.270;2022-07-09T02:29:28;16.40;99.90
1021;DHT22;499;42.648;23.270;2022-07-09T02:31:55;16.40;99.90
1021;DHT22;499;42.648;23.270;2022-07-09T02:34:23;16.50;99.90
1021;DHT22;499;42.648;23.270;2022-07-09T02:36:50;16.60;99.90
1021;DHT22;499;42.648;23.270;2022-07-09T02:39:17;16.50;99.90
1021;DHT22;499;42.648;23.270;2022-07-09T02:41:44;16.60;99.90
1021;DHT22;499;42.648;23.270;2022-07-09T02:44:11;16.50;99.90
1021;DHT22;499;42.648;23.270;2022-07-09T02:46:40;16.40;99.90
1021;DHT22;499;42.648;23.270;2022-07-09T02:49:07;16.40;99.90
1021;DHT22;499;42.648;23.270;2022-07-09T02:51:34;16.40;99.90
1021;DHT22;499;42.648;23.270;2022-07-09T02:54:01;16.30;99.90
1021;DHT22;499;42.648;23.270;2022-07-09T02:56:28;16.40;99.90
1021;DHT22;499;42.648;23.270;2022-07-09T02:58:55;16.40;99.90
1021;DHT22;499;42.648;23.270;2022-07-09T03:01:22;16.50;99.90
1021;DHT22;499;42.648;23.270;2022-07-09T03:03:51;16.40;99.90
1021;DHT22;499;42.648;23.270;2022-07-09T03:06:18;16.60;99.90
1021;DHT22;499;42.648;23.270;2022-07-09T03:08:45;16.70;99.90
1021;DHT22;499;42.648;23.270;2022-07-09T03:11:12;16.70;99.90
1021;DHT22;499;42.648;23.270;2022-07-09T03:13:39;16.50;99.90
1021;DHT22;499;42.648;23.270;2022-07-09T03:16:06;16.50;99.90
1021;DHT22;499;42.648;23.270;2022-07-09T03:18:33;16.60;99.90
1021;DHT22;499;42.648;23.270;2022-07-09T03:21:02;16.60;99.90
1021;DHT22;499;42.648;23.270;2022-07-09T03:23:29;16.70;99.90
1021;DHT22;499;42.648;23.270;2022-07-09T03:25:56;16.80;99.90
1021;DHT22;499;42.648;23.270;2022-07-09T03:28:23;16.70;99.90
1021;DHT22;499;42.648;23.270;2022-07-09T03:30:50;16.50;99.90
1021;DHT22;499;42.648;23.270;2022-07-09T03:33:17;16.40;99.90
1021;DHT22;499;42.648;23.270;2022-07-09T03:35:44;16.40;99.90
1021;DHT22;499;42.648;23.270;2022-07-09T03:38:13;16.40;99.90
1021;DHT22;499;42.648;23.270;2022-07-09T03:40:40;16.50;99.90
1021;DHT22;499;42.648;23.270;2022-07-09T03:43:07;16.60;99.90
1021;DHT22;499;42.648;23.270;2022-07-09T03:45:34;16.80;99.90
1021;DHT22;499;42.648;23.270;2022-07-09T03:48:01;16.90;99.90
1021;DHT22;499;42.648;23.270;2022-07-09T03:50:28;16.90;99.90
1021;DHT22;499;42.648;23.270;2022-07-09T03:52:55;17.10;99.90
1021;DHT22;499;42.648;23.270;2022-07-09T03:55:24;17.10;99.90
1021;DHT22;499;42.648;23.270;2022-07-09T03:57:51;17.00;99.90
1021;DHT22;499;42.648;23.270;2022-07-09T04:00:18;17.10;99.90
1021;DHT22;499;42.648;23.270;2022-07-09T04:02:45;17.00;99.90
1021;DHT22;499;42.648;23.270;2022-07-09T04:05:13;17.00;99.90
1021;DHT22;499;42.648;23.270;2022-07-09T04:07:40;17.00;99.90
1021;DHT22;499;42.648;23.270;2022-07-09T04:10:08;17.00;99.90
1021;DHT22;499;42.648;23.270;2022-07-09T04:12:37;17.10;99.90
1021;DHT22;499;42.648;23.270;2022-07-09T04:15:05;17.00;99.90
1021;DHT22;499;42.648;23.270;2022-07-09T04:17:32;17.00;99.90
1021;DHT22;499;42.648;23.270;2022-07-09T04:19:59;16.90;99.90
1021;DHT22;499;42.648;23.270;2022-07-09T04:22:26;16.90;99.90
1021;DHT22;499;42.648;23.270;2022-07-09T04:24:54;16.70;99.90
1021;DHT22;499;42.648;23.270;2022-07-09T04:27:21;16.80;99.90
1021;DHT22;499;42.648;23.270;2022-07-09T04:29:49;16.80;99.90
1021;DHT22;499;42.648;23.270;2022-07-09T04:32:16;16.80;99.90
1021;DHT22;499;42.648;23.270;2022-07-09T04:34:43;16.80;99.90
1021;DHT22;499;42.648;23.270;2022-07-09T04:37:10;16.80;99.90
1021;DHT22;499;42.648;23.270;2022-07-09T04:39:37;16.70;99.90
1021;DHT22;499;42.648;23.270;2022-07-09T04:42:05;16.60;99.90
1021;DHT22;499;42.648;23.270;2022-07-09T04:44:32;16.70;99.90
1021;DHT22;499;42.648;23.270;2022-07-09T04:47:00;16.80;99.90
1021;DHT22;499;42.648;23.270;2022-07-09T04:49:28;16.80;99.90
1021;DHT22;499;42.648;23.270;2022-07-09T04:51:55;17.00;99.90
1021;DHT22;499;42.648;23.270;2022-07-09T04:54:22;17.10;99.90
1021;DHT22;499;42.648;23.270;2022-07-09T04:56:49;16.90;99.90
1021;DHT22;499;42.648;23.270;2022-07-09T04:59:16;16.90;99.90
1021;DHT22;499;42.648;23.270;2022-07-09T05:01:43;16.90;99.90
1021;DHT22;499;42.648;23.270;2022-07-09T05:04:12;16.80;99.90
1021;DHT22;499;42.648;23.270;2022-07-09T05:06:39;17.00;99.90
1021;DHT22;499;42.648;23.270;2022-07-09T05:09:06;17.00;99.90
1021;DHT22;499;42.648;23.270;2022-07-09T05:11:33;17.00;99.90
1021;DHT22;499;42.648;23.270;2022-07-09T05:14:00;17.10;99.90
1021;DHT22;499;42.648;23.270;2022-07-09T05:16:27;17.00;99.90
1021;DHT22;499;42.648;23.270;2022-07-09T05:18:54;17.00;99.90
1021;DHT22;499;42.648;23.270;2022-07-09T05:21:23;17.00;99.90
1021;DHT22;499;42.648;23.270;2022-07-09T05:23:50;16.90;99.90
1021;DHT22;499;42.648;23.270;2022-07-09T05:26:17;16.90;99.90
1021;DHT22;499;42.648;23.270;2022-07-09T05:28:44;16.80;99.90
1021;DHT22;499;42.648;23.270;2022-07-09T05:31:11;16.80;99.90
1021;DHT22;499;42.648;23.270;2022-07-09T05:33:38;16.90;99.90
1021;DHT22;499;42.648;23.270;2022-07-09T05:36:06;16.90;99.90
1021;DHT22;499;42.648;23.270;2022-07-09T05:38:35;16.90;99.90
1021;DHT22;499;42.648;23.270;2022-07-09T05:41:02;16.90;99.90
1021;DHT22;499;42.648;23.270;2022-07-09T05:43:29;16.90;99.90
1021;DHT22;499;42.648;23.270;2022-07-09T05:45:56;17.00;99.90
1021;DHT22;499;42.648;23.270;2022-07-09T05:48:24;17.00;99.90
1021;DHT22;499;42.648;23.270;2022-07-09T05:50:52;17.10;99.90
1021;DHT22;499;42.648;23.270;2022-07-09T05:53:20;17.10;99.90
1021;DHT22;499;42.648;23.270;2022-07-09T05:55:48;17.10;99.90
1021;DHT22;499;42.648;23.270;2022-07-09T05:58:16;17.20;99.90
1021;DHT22;499;42.648;23.270;2022-07-09T06:00:43;17.10;99.90
1021;DHT22;499;42.648;23.270;2022-07-09T06:03:10;17.10;99.90
1021;DHT22;499;42.648;23.270;2022-07-09T06:05:37;16.90;99.90
1021;DHT22;499;42.648;23.270;2022-07-09T06:08:04;16.90;99.90
1021;DHT22;499;42.648;23.270;2022-07-09T06:10:31;16.90;99.90
1021;DHT22;499;42.648;23.270;2022-07-09T06:13:00;17.00;99.90
1021;DHT22;499;42.648;23.270;2022-07-09T06:15:27;16.90;99.90
1021;DHT22;499;42.648;23.270;2022-07-09T06:17:54;17.00;99.90
1021;DHT22;499;42.648;23.270;2022-07-09T06:20:21;17.00;99.90
1021;DHT22;499;42.648;23.270;2022-07-09T06:22:48;16.90;99.90
1021;DHT22;499;42.648;23.270;2022-07-09T06:25:15;16.90;99.90
1021;DHT22;499;42.648;23.270;2022-07-09T06:27:42;17.00;99.90
1021;DHT22;499;42.648;23.270;2022-07-09T06:30:11;17.10;99.90
1021;DHT22;499;42.648;23.270;2022-07-09T06:32:38;17.20;99.90
1021;DHT22;499;42.648;23.270;2022-07-09T06:35:06;17.30;99.90
1021;DHT22;499;42.648;23.270;2022-07-09T06:37:33;17.40;99.90
1021;DHT22;499;42.648;23.270;2022-07-09T06:40:01;17.50;99.90
1021;DHT22;499;42.648;23.270;2022-07-09T06:42:28;17.50;99.90
1021;DHT22;499;42.648;23.270;2022-07-09T06:44:55;17.60;99.90
1021;DHT22;499;42.648;23.270;2022-07-09T06:47:23;17.50;99.90
1021;DHT22;499;42.648;23.270;2022-07-09T06:49:50;17.40;99.90
1021;DHT22;499;42.648;23.270;2022-07-09T06:52:17;17.40;99.90
1021;DHT22;499;42.648;23.270;2022-07-09T06:54:44;17.30;99.90
1021;DHT22;499;42.648;23.270;2022-07-09T06:57:11;17.30;99.90
1021;DHT22;499;42.648;23.270;2022-07-09T06:59:39;17.40;99.90
1021;DHT22;499;42.648;23.270;2022-07-09T07:02:07;17.50;99.90
1021;DHT22;499;42.648;23.270;2022-07-09T07:04:35;17.50;99.90
1021;DHT22;499;42.648;23.270;2022-07-09T07:07:02;17.50;99.90
1021;DHT22;499;42.648;23.270;2022-07-09T07:09:30;17.40;99.90
1021;DHT22;499;42.648;23.270;2022-07-09T07:11:57;17.60;99.90
1021;DHT22;499;42.648;23.270;2022-07-09T07:14:24;17.50;99.90
1021;DHT22;499;42.648;23.270;2022-07-09T07:16:51;17.60;99.90
1021;DHT22;499;42.648;23.270;2022-07-09T07:19:19;17.70;99.90
1021;DHT22;499;42.648;23.270;2022-07-09T07:21:48;17.70;99.90
1021;DHT22;499;42.648;23.270;2022-07-09T07:24:16;17.50;99.90
1021;DHT22;499;42.648;23.270;2022-07-09T07:26:43;17.40;99.90
1021;DHT22;499;42.648;23.270;2022-07-09T07:29:10;17.10;99.90
1021;DHT22;499;42.648;23.270;2022-07-09T07:31:37;17.10;99.90
1021;DHT22;499;42.648;23.270;2022-07-09T07:34:04;17.00;99.90
1021;DHT22;499;42.648;23.270;2022-07-09T07:36:31;16.90;99.90
1021;DHT22;499;42.648;23.270;2022-07-09T07:39:01;17.00;99.90
1021;DHT22;499;42.648;23.270;2022-07-09T07:41:29;17.00;99.90
1021;DHT22;499;42.648;23.270;2022-07-09T07:43:56;17.20;99.90
1021;DHT22;499;42.648;23.270;2022-07-09T07:46:23;17.20;99.90
1021;DHT22;499;42.648;23.270;2022-07-09T07:48:50;17.10;99.90
1021;DHT22;499;42.648;23.270;2022-07-09T07:51:17;17.30;99.90
1021;DHT22;499;42.648;23.270;2022-07-09T07:53:44;17.30;99.90
1021;DHT22;499;42.648;23.270;2022-07-09T07:56:12;17.40;99.90
1021;DHT22;499;42.648;23.270;2022-07-09T07:58:40;17.50;99.90
1021;DHT22;499;42.648;23.270;2022-07-09T08:01:07;17.70;99.90
1021;DHT22;499;42.648;23.270;2022-07-09T08:03:34;17.70;99.90
1021;DHT22;499;42.648;23.270;2022-07-09T08:06:01;17.80;99.90
1021;DHT22;499;42.648;23.270;2022-07-09T08:08:28;17.80;99.90
1021;DHT22;499;42.648;23.270;2022-07-09T08:10:55;17.80;99.90
1021;DHT22;499;42.648;23.270;2022-07-09T08:13:25;17.60;99.90
1021;DHT22;499;42.648;23.270;2022-07-09T08:15:54;17.60;99.90
1021;DHT22;499;42.648;23.270;2022-07-09T08:18:21;17.40;99.90
1021;DHT22;499;42.648;23.270;2022-07-09T08:20:48;17.30;99.90
1021;DHT22;499;42.648;23.270;2022-07-09T08:23:17;17.20;99.90
1021;DHT22;499;42.648;23.270;2022-07-09T08:25:44;17.20;99.90
1021;DHT22;499;42.648;23.270;2022-07-09T08:28:11;17.30;99.90
1021;DHT22;499;42.648;23.270;2022-07-09T08:30:40;17.40;99.90
1021;DHT22;499;42.648;23.270;2022-07-09T08:33:07;17.50;99.90
1021;DHT22;499;42.648;23.270;2022-07-09T08:35:34;17.70;99.90
1021;DHT22;499;42.648;23.270;2022-07-09T08:38:01;17.80;99.90
1021;DHT22;499;42.648;23.270;2022-07-09T08:40:28;17.80;99.90
1021;DHT22;499;42.648;23.270;2022-07-09T08:42:57;17.80;99.90
1021;DHT22;499;42.648;23.270;2022-07-09T08:45:30;18.00;99.90
1021;DHT22;499;42.648;23.270;2022-07-09T08:48:00;17.80;99.90
1021;DHT22;499;42.648;23.270;2022-07-09T08:50:28;17.90;99.90
1021;DHT22;499;42.648;23.270;2022-07-09T08:52:55;17.60;99.90
1021;DHT22;499;42.648;23.270;2022-07-09T08:55:22;17.80;99.90
1021;DHT22;499;42.648;23.270;2022-07-09T08:57:50;17.90;99.90
1021;DHT22;499;42.648;23.270;2022-07-09T09:00:17;18.00;99.90
1021;DHT22;499;42.648;23.270;2022-07-09T09:02:44;17.90;99.90
1021;DHT22;499;42.648;23.270;2022-07-09T09:05:14;18.00;99.90
1021;DHT22;499;42.648;23.270;2022-07-09T09:07:42;18.00;99.90
1021;DHT22;499;42.648;23.270;2022-07-09T09:10:21;18.10;99.90
1021;DHT22;499;42.648;23.270;2022-07-09T09:12:48;18.10;99.90
1021;DHT22;499;42.648;23.270;2022-07-09T09:15:17;18.30;99.90
1021;DHT22;499;42.648;23.270;2022-07-09T09:17:45;18.30;99.90
1021;DHT22;499;42.648;23.270;2022-07-09T09:20:14;18.50;99.90
1021;DHT22;499;42.648;23.270;2022-07-09T09:22:46;18.50;99.90
1021;DHT22;499;42.648;23.270;2022-07-09T09:25:18;18.30;99.90
1021;DHT22;499;42.648;23.270;2022-07-09T09:27:52;18.10;99.90
1021;DHT22;499;42.648;23.270;2022-07-09T09:30:19;18.10;99.90
1021;DHT22;499;42.648;23.270;2022-07-09T09:32:54;17.90;99.90
1021;DHT22;499;42.648;23.270;2022-07-09T09:35:23;17.80;99.90
1021;DHT22;499;42.648;23.270;2022-07-09T09:37:50;17.80;99.90
1021;DHT22;499;42.648;23.270;2022-07-09T09:40:18;17.70;99.90
1021;DHT22;499;42.648;23.270;2022-07-09T09:42:45;17.60;99.90
1021;DHT22;499;42.648;23.270;2022-07-09T09:45:13;17.80;99.90
1021;DHT22;499;42.648;23.270;2022-07-09T09:47:45;17.80;99.90
1021;DHT22;499;42.648;23.270;2022-07-09T09:50:17;17.80;99.90
1021;DHT22;499;42.648;23.270;2022-07-09T09:52:47;17.70;99.90
1021;DHT22;499;42.648;23.270;2022-07-09T09:55:16;17.80;99.90
1021;DHT22;499;42.648;23.270;2022-07-09T09:57:43;17.80;99.90
1021;DHT22;499;42.648;23.270;2022-07-09T10:00:12;17.90;99.90
1021;DHT22;499;42.648;23.270;2022-07-09T10:02:43;18.00;99.90
1021;DHT22;499;42.648;23.270;2022-07-09T10:05:10;17.80;99.90
1021;DHT22;499;42.648;23.270;2022-07-09T10:07:38;17.80;99.90
1021;DHT22;499;42.648;23.270;2022-07-09T10:10:08;17.90;99.90
1021;DHT22;499;42.648;23.270;2022-07-09T10:12:36;17.70;99.90
1021;DHT22;499;42.648;23.270;2022-07-09T10:15:08;17.60;99.90
1021;DHT22;499;42.648;23.270;2022-07-09T10:17:45;17.50;99.90
1021;DHT22;499;42.648;23.270;2022-07-09T10:20:13;17.50;99.90
1021;DHT22;499;42.648;23.270;2022-07-09T10:22:41;17.40;99.90
1021;DHT22;499;42.648;23.270;2022-07-09T10:25:12;17.50;99.90
1021;DHT22;499;42.648;23.270;2022-07-09T10:27:43;17.40;99.90
1021;DHT22;499;42.648;23.270;2022-07-09T10:30:23;17.50;99.90
1021;DHT22;499;42.648;23.270;2022-07-09T10:33:04;17.60;99.90
1021;DHT22;499;42.648;23.270;2022-07-09T10:35:39;17.40;99.90
1021;DHT22;499;42.648;23.270;2022-07-09T10:38:06;17.40;99.90
1021;DHT22;499;42.648;23.270;2022-07-09T10:40:40;17.30;99.90
1021;DHT22;499;42.648;23.270;2022-07-09T10:43:07;17.10;99.90
1021;DHT22;499;42.648;23.270;2022-07-09T10:45:39;17.00;99.90
1021;DHT22;499;42.648;23.270;2022-07-09T10:48:09;16.70;99.90
1021;DHT22;499;42.648;23.270;2022-07-09T10:50:39;16.60;99.90
1021;DHT22;499;42.648;23.270;2022-07-09T10:53:07;16.40;99.90
1021;DHT22;499;42.648;23.270;2022-07-09T10:55:34;16.40;99.90
1021;DHT22;499;42.648;23.270;2022-07-09T10:58:03;16.40;99.90
1021;DHT22;499;42.648;23.270;2022-07-09T11:00:34;16.60;99.90
1021;DHT22;499;42.648;23.270;2022-07-09T11:03:02;16.60;99.90
1021;DHT22;499;42.648;23.270;2022-07-09T11:05:30;16.60;99.90
1021;DHT22;499;42.648;23.270;2022-07-09T11:08:00;16.40;99.90
1021;DHT22;499;42.648;23.270;2022-07-09T11:10:28;16.40;99.90
1021;DHT22;499;42.648;23.270;2022-07-09T11:12:56;16.40;99.90
1021;DHT22;499;42.648;23.270;2022-07-09T11:15:27;16.30;99.90
1021;DHT22;499;42.648;23.270;2022-07-09T11:17:58;16.30;99.90
1021;DHT22;499;42.648;23.270;2022-07-09T11:20:26;16.50;99.90
1021;DHT22;499;42.648;23.270;2022-07-09T11:22:54;16.40;99.90
1021;DHT22;499;42.648;23.270;2022-07-09T11:25:24;16.50;99.90
1021;DHT22;499;42.648;23.270;2022-07-09T11:27:52;16.50;99.90
1021;DHT22;499;42.648;23.270;2022-07-09T11:30:20;16.40;99.90
1021;DHT22;499;42.648;23.270;2022-07-09T11:32:49;16.40;99.90
1021;DHT22;499;42.648;23.270;2022-07-09T11:35:26;16.30;99.90
1021;DHT22;499;42.648;23.270;2022-07-09T11:37:54;16.30;99.90
1021;DHT22;499;42.648;23.270;2022-07-09T11:40:21;16.30;99.90
1021;DHT22;499;42.648;23.270;2022-07-09T11:42:48;16.30;99.90
1021;DHT22;499;42.648;23.270;2022-07-09T11:45:20;16.20;99.90
1021;DHT22;499;42.648;23.270;2022-07-09T11:47:49;16.20;99.90
1021;DHT22;499;42.648;23.270;2022-07-09T11:50:17;16.20;99.90
1021;DHT22;499;42.648;23.270;2022-07-09T11:52:46;16.10;99.90
1021;DHT22;499;42.648;23.270;2022-07-09T11:55:16;16.20;99.90
1021;DHT22;499;42.648;23.270;2022-07-09T11:57:54;16.50;99.90
1021;DHT22;499;42.648;23.270;2022-07-09T12:00:22;16.40;99.90
1021;DHT22;499;42.648;23.270;2022-07-09T12:02:51;16.60;99.90
1021;DHT22;499;42.648;23.270;2022-07-09T12:05:27;16.50;99.90
1021;DHT22;499;42.648;23.270;2022-07-09T12:07:57;16.30;99.90
1021;DHT22;499;42.648;23.270;2022-07-09T12:10:29;16.30;99.90
1021;DHT22;499;42.648;23.270;2022-07-09T12:12:58;16.40;99.90
1021;DHT22;499;42.648;23.270;2022-07-09T12:15:26;16.30;99.90
1021;DHT22;499;42.648;23.270;2022-07-09T12:17:56;16.30;99.90
1021;DHT22;499;42.648;23.270;2022-07-09T12:20:24;16.40;99.90
1021;DHT22;499;42.648;23.270;2022-07-09T12:22:52;16.50;99.90
1021;DHT22;499;42.648;23.270;2022-07-09T12:25:19;16.60;99.90
1021;DHT22;499;42.648;23.270;2022-07-09T12:27:47;16.90;99.90
1021;DHT22;499;42.648;23.270;2022-07-09T12:30:15;17.10;99.90
1021;DHT22;499;42.648;23.270;2022-07-09T12:32:42;17.50;99.90
1021;DHT22;499;42.648;23.270;2022-07-09T12:35:13;17.70;99.90
1021;DHT22;499;42.648;23.270;2022-07-09T12:37:40;17.90;99.90
1021;DHT22;499;42.648;23.270;2022-07-09T12:40:09;18.10;99.90
1021;DHT22;499;42.648;23.270;2022-07-09T12:42:37;18.10;99.90
1021;DHT22;499;42.648;23.270;2022-07-09T12:45:05;18.00;97.50
1021;DHT22;499;42.648;23.270;2022-07-09T12:47:32;17.90;98.20
1021;DHT22;499;42.648;23.270;2022-07-09T12:49:59;17.70;96.60
1021;DHT22;499;42.648;23.270;2022-07-09T12:52:31;17.60;98.70
1021;DHT22;499;42.648;23.270;2022-07-09T12:54:59;17.60;98.10
1021;DHT22;499;42.648;23.270;2022-07-09T12:57:27;17.50;98.30
1021;DHT22;499;42.648;23.270;2022-07-09T12:59:54;17.30;98.80
1021;DHT22;499;42.648;23.270;2022-07-09T13:02:21;17.40;99.90
1021;DHT22;499;42.648;23.270;2022-07-09T13:04:48;17.50;99.90
1021;DHT22;499;42.648;23.270;2022-07-09T13:07:15;17.70;99.90
1021;DHT22;499;42.648;23.270;2022-07-09T13:09:44;17.60;99.90
1021;DHT22;499;42.648;23.270;2022-07-09T13:12:11;17.50;99.90
1021;DHT22;499;42.648;23.270;2022-07-09T13:14:38;17.50;99.60
1021;DHT22;499;42.648;23.270;2022-07-09T13:17:05;17.40;99.90
1021;DHT22;499;42.648;23.270;2022-07-09T13:19:32;17.50;99.90
1021;DHT22;499;42.648;23.270;2022-07-09T13:21:59;17.40;99.90
1021;DHT22;499;42.648;23.270;2022-07-09T13:24:27;17.50;99.90
1021;DHT22;499;42.648;23.270;2022-07-09T13:26:55;17.40;99.90
1021;DHT22;499;42.648;23.270;2022-07-09T13:29:22;17.40;99.90
1021;DHT22;499;42.648;23.270;2022-07-09T13:31:49;17.40;99.90
1021;DHT22;499;42.648;23.270;2022-07-09T13:34:16;17.50;99.90
1021;DHT22;499;42.648;23.270;2022-07-09T13:36:43;17.60;99.90
1021;DHT22;499;42.648;23.270;2022-07-09T13:39:11;17.60;99.90
1021;DHT22;499;42.648;23.270;2022-07-09T13:41:38;17.40;99.90
1021;DHT22;499;42.648;23.270;2022-07-09T13:44:06;17.40;99.90
1021;DHT22;499;42.648;23.270;2022-07-09T13:46:34;17.60;99.90
1021;DHT22;499;42.648;23.270;2022-07-09T13:49:01;17.60;99.90
1021;DHT22;499;42.648;23.270;2022-07-09T13:51:28;17.80;99.90
1021;DHT22;499;42.648;23.270;2022-07-09T13:53:55;18.00;99.90
1021;DHT22;499;42.648;23.270;2022-07-09T13:56:23;18.20;99.10
1021;DHT22;499;42.648;23.270;2022-07-09T13:58:50;18.40;95.20
1021;DHT22;499;42.648;23.270;2022-07-09T14:01:19;18.30;95.10
1021;DHT22;499;42.648;23.270;2022-07-09T14:03:46;18.30;97.10
1021;DHT22;499;42.648;23.270;2022-07-09T14:06:13;18.50;96.90
1021;DHT22;499;42.648;23.270;2022-07-09T14:08:40;18.60;95.40
1021;DHT22;499;42.648;23.270;2022-07-09T14:11:07;18.60;95.60
1021;DHT22;499;42.648;23.270;2022-07-09T14:13:34;18.50;91.90
1021;DHT22;499;42.648;23.270;2022-07-09T14:16:02;18.40;93.00
1021;DHT22;499;42.648;23.270;2022-07-09T14:18:30;18.20;93.70
1021;DHT22;499;42.648;23.270;2022-07-09T14:20:58;18.20;94.30
1021;DHT22;499;42.648;23.270;2022-07-09T14:23:25;18.30;95.70
1021;DHT22;499;42.648;23.270;2022-07-09T14:25:52;18.20;96.30
1021;DHT22;499;42.648;23.270;2022-07-09T14:28:19;18.20;95.30
1021;DHT22;499;42.648;23.270;2022-07-09T14:30:46;18.20;95.60
1021;DHT22;499;42.648;23.270;2022-07-09T14:33:14;18.40;96.10
1021;DHT22;499;42.648;23.270;2022-07-09T14:35:42;18.70;94.50
1021;DHT22;499;42.648;23.270;2022-07-09T14:38:10;18.70;93.10
1021;DHT22;499;42.648;23.270;2022-07-09T14:40:37;18.80;92.50
1021;DHT22;499;42.648;23.270;2022-07-09T14:43:04;19.00;93.20
1021;DHT22;499;42.648;23.270;2022-07-09T14:45:31;19.10;92.70
1021;DHT22;499;42.648;23.270;2022-07-09T14:47:59;18.90;88.70
1021;DHT22;499;42.648;23.270;2022-07-09T14:50:26;19.10;91.80
1021;DHT22;499;42.648;23.270;2022-07-09T14:52:54;19.10;91.70
1021;DHT22;499;42.648;23.270;2022-07-09T14:55:22;19.20;91.00
1021;DHT22;499;42.648;23.270;2022-07-09T14:57:49;19.30;91.50
1021;DHT22;499;42.648;23.270;2022-07-09T15:00:16;19.50;90.70
1021;DHT22;499;42.648;23.270;2022-07-09T15:02:43;19.70;91.50
1021;DHT22;499;42.648;23.270;2022-07-09T15:05:10;19.50;87.00
1021;DHT22;499;42.648;23.270;2022-07-09T15:07:37;19.50;88.90
1021;DHT22;499;42.648;23.270;2022-07-09T15:10:06;19.50;88.50
1021;DHT22;499;42.648;23.270;2022-07-09T15:12:34;19.40;86.00
1021;DHT22;499;42.648;23.270;2022-07-09T15:15:01;19.30;88.50
1021;DHT22;499;42.648;23.270;2022-07-09T15:17:28;19.00;90.50
1021;DHT22;499;42.648;23.270;2022-07-09T15:19:55;19.10;89.10
1021;DHT22;499;42.648;23.270;2022-07-09T15:22:22;19.00;89.20
1021;DHT22;499;42.648;23.270;2022-07-09T15:24:49;18.90;90.80
1021;DHT22;499;42.648;23.270;2022-07-09T15:27:17;19.10;90.90
1021;DHT22;499;42.648;23.270;2022-07-09T15:29:45;19.00;90.50
1021;DHT22;499;42.648;23.270;2022-07-09T15:32:12;18.60;90.40
1021;DHT22;499;42.648;23.270;2022-07-09T15:34:40;18.70;93.10
1021;DHT22;499;42.648;23.270;2022-07-09T15:37:10;18.50;92.40
1021;DHT22;499;42.648;23.270;2022-07-09T15:39:38;18.30;96.10
1021;DHT22;499;42.648;23.270;2022-07-09T15:42:05;18.40;97.00
1021;DHT22;499;42.648;23.270;2022-07-09T15:44:35;18.20;94.20
1021;DHT22;499;42.648;23.270;2022-07-09T15:47:03;18.40;95.80
1021;DHT22;499;42.648;23.270;2022-07-09T15:49:30;18.30;95.90
1021;DHT22;499;42.648;23.270;2022-07-09T15:51:57;18.40;96.40
1021;DHT22;499;42.648;23.270;2022-07-09T15:54:24;18.40;93.70
1021;DHT22;499;42.648;23.270;2022-07-09T15:56:51;18.30;94.40
1021;DHT22;499;42.648;23.270;2022-07-09T15:59:19;18.40;95.30
1021;DHT22;499;42.648;23.270;2022-07-09T16:01:47;18.40;94.90
1021;DHT22;499;42.648;23.270;2022-07-09T16:04:14;18.40;95.10
1021;DHT22;499;42.648;23.270;2022-07-09T16:06:42;18.50;96.50